OEJN

King Abdulaziz International Airport

Jeddah, Saudi Arabia
TAF OEJN 230500Z 2306/2412 29013KT 9999 FEW040 BECMG 2318/2320 03008KT
Issued Valid From Valid To
Jan-23 @ 05:00 UTC
(3 hours ago)
Jan-23 @ 06:00 UTC
(2 hours ago)
Jan-24 @ 12:00 UTC
(-1 days ago)
Jan-23 @ 06:00 to Jan-23 @ 18:00
TAF OEJN 230500Z 2306/2412 29013KT 9999 FEW040
Wind Visibility Clouds
290° at 13 knots 10,000+ meters
  • Few at 4,000' AGL
Becoming Jan-23 @ 18:00 to Jan-24 @ 12:00
BECMG 2318/2320 03008KT
Wind Visibility Clouds
30° at 8 knots 10,000+ meters
  • Few at 4,000' AGL
TAF OEJN 230500Z 2306/2412 29013KT 9999 FEW040 BECMG 2318/2320 03008KT
Issued Jan-23 @ 05:00 UTC
(3 hours ago)
Valid From Jan-23 @ 06:00 UTC
(2 hours ago)
Valid To Jan-24 @ 12:00 UTC
(-1 days ago)
Jan-23 @ 06:00 - Jan-23 @ 18:00
Wind Visibility
290° at 13 knots 10,000+ meters
Clouds
  • Few at 4,000' AGL
Becoming Jan-23 @ 18:00 - Jan-24 @ 12:00
Wind Visibility
30° at 8 knots 10,000+ meters
Clouds
  • Few at 4,000' AGL